Time;durP1;ratioP1;P1;durP2;ratioP2;P2;SDS_P1;SDS_P2;PMS_P1;PMS_P2;Temp;Humidity;BMP_temperature;BMP_pressure;BME280_temperature;BME280_humidity;BME280_pressure;Samples;Min_cycle;Max_cycle;Signal;HPM_P1;HPM_P2
2023/03/25 00:01:00;;;;;;;22.73;14.88;;;6.60;99.90;;;;;;5037440;28;20086;-86
2023/03/25 00:04:03;;;;;;;27.60;15.63;;;6.70;99.90;;;;;;5022180;28;20112;-86
2023/03/25 00:06:29;;;;;;;22.75;14.88;;;6.70;99.90;;;;;;5020848;28;20528;-86
2023/03/25 00:08:55;;;;;;;35.92;18.05;;;6.60;99.90;;;;;;5018971;28;20033;-87
2023/03/25 00:11:23;;;;;;;31.38;17.45;;;6.70;99.90;;;;;;5020686;28;20476;-88
2023/03/25 00:13:49;;;;;;;26.15;16.73;;;6.60;99.90;;;;;;5017483;28;20123;-87
2023/03/25 00:16:17;;;;;;;26.40;15.45;;;6.60;99.90;;;;;;5034748;28;20036;-87
2023/03/25 00:18:46;;;;;;;36.22;15.32;;;6.60;99.90;;;;;;5033468;28;20032;-87
2023/03/25 00:21:13;;;;;;;26.58;15.05;;;6.60;99.90;;;;;;5020785;28;20088;-87
2023/03/25 00:23:40;;;;;;;22.85;14.20;;;6.60;99.90;;;;;;5021144;28;20558;-86
2023/03/25 00:26:06;;;;;;;29.33;14.85;;;6.60;99.90;;;;;;5021003;28;20407;-87
2023/03/25 00:28:35;;;;;;;33.53;13.93;;;6.50;99.90;;;;;;5037015;28;20040;-87
2023/03/25 00:31:07;;;;;;;29.25;13.63;;;6.60;99.90;;;;;;5037386;28;20044;-86
2023/03/25 00:33:34;;;;;;;23.42;12.88;;;6.50;99.90;;;;;;5040290;28;20053;-86
2023/03/25 00:36:00;;;;;;;24.92;11.80;;;6.50;99.90;;;;;;5041184;28;20039;-86
2023/03/25 00:38:34;;;;;;;19.20;10.80;;;6.60;99.90;;;;;;5041807;28;20488;-86
2023/03/25 00:41:21;;;;;;;17.88;10.63;;;6.40;99.90;;;;;;5025992;28;20029;-86
2023/03/25 00:43:48;;;;;;;25.85;9.77;;;6.40;99.90;;;;;;5024450;28;20028;-86
2023/03/25 00:46:15;;;;;;;22.45;9.63;;;6.30;99.90;;;;;;5041899;28;20052;-87
2023/03/25 00:48:42;;;;;;;21.55;9.05;;;6.40;99.90;;;;;;5040761;28;20061;-87
2023/03/25 00:51:12;;;;;;;23.85;7.45;;;6.40;99.90;;;;;;5059068;28;20091;-86
2023/03/25 00:53:39;;;;;;;18.08;8.30;;;6.30;99.90;;;;;;5041528;28;20025;-86
2023/03/25 00:56:05;;;;;;;14.20;6.70;;;6.20;99.90;;;;;;5023394;28;20470;-86
2023/03/25 00:58:31;;;;;;;17.63;7.05;;;6.20;99.90;;;;;;5045829;28;20032;-86
2023/03/25 01:00:58;;;;;;;21.45;6.47;;;6.10;99.90;;;;;;5024154;28;20092;-86
2023/03/25 01:03:25;;;;;;;13.45;6.28;;;6.10;99.90;;;;;;5022161;28;20057;-86
2023/03/25 01:05:53;;;;;;;15.38;6.05;;;6.10;99.90;;;;;;5025869;28;20048;-86
2023/03/25 01:08:24;;;;;;;13.65;5.28;;;6.10;99.90;;;;;;5048566;28;20025;-87
2023/03/25 01:10:53;;;;;;;14.40;4.70;;;6.10;99.90;;;;;;5024699;28;20116;-86
2023/03/25 01:13:19;;;;;;;13.02;4.97;;;6.20;99.90;;;;;;5032064;28;20051;-87
2023/03/25 01:15:45;;;;;;;14.68;4.22;;;6.10;99.90;;;;;;5037071;28;20025;-86
2023/03/25 01:18:11;;;;;;;17.65;5.45;;;6.20;99.90;;;;;;5023553;28;20076;-87
2023/03/25 01:20:39;;;;;;;24.00;5.00;;;6.10;99.90;;;;;;5024407;28;20031;-86
2023/03/25 01:23:04;;;;;;;13.00;4.30;;;6.10;99.90;;;;;;5023114;28;20040;-86
2023/03/25 01:25:30;;;;;;;14.18;4.45;;;6.00;99.90;;;;;;5026669;28;20115;-87
2023/03/25 01:27:56;;;;;;;12.43;3.95;;;6.00;99.90;;;;;;5035044;28;20045;-86
2023/03/25 01:30:22;;;;;;;17.50;3.70;;;6.00;99.90;;;;;;5035650;28;20039;-85
2023/03/25 01:32:47;;;;;;;14.65;3.42;;;6.00;99.90;;;;;;5052031;28;20040;-86
2023/03/25 01:35:13;;;;;;;18.77;3.55;;;6.00;99.90;;;;;;5035932;28;20036;-87
2023/03/25 01:37:39;;;;;;;16.23;3.15;;;6.00;99.90;;;;;;5025109;28;20028;-86
2023/03/25 01:40:08;;;;;;;13.20;3.17;;;6.00;99.90;;;;;;5022066;28;20037;-86
2023/03/25 01:42:34;;;;;;;13.90;3.25;;;6.00;99.90;;;;;;5040419;28;20033;-86
2023/03/25 01:45:19;;;;;;;13.15;3.05;;;6.00;99.90;;;;;;5039233;28;20407;-87
2023/03/25 01:47:47;;;;;;;18.48;3.90;;;6.00;99.90;;;;;;5023901;28;20021;-86
2023/03/25 01:50:13;;;;;;;9.20;3.45;;;6.00;99.90;;;;;;5022724;28;20037;-86
2023/03/25 01:52:44;;;;;;;15.68;5.68;;;6.00;99.90;;;;;;5034592;28;20025;-86
2023/03/25 01:55:10;;;;;;;16.05;3.33;;;6.00;99.90;;;;;;5023256;28;20025;-87
2023/03/25 01:57:42;;;;;;;14.50;3.70;;;6.00;99.90;;;;;;5020466;28;20026;-87
2023/03/25 02:00:09;;;;;;;11.15;3.78;;;5.90;99.90;;;;;;5030346;28;20036;-87
2023/03/25 02:02:39;;;;;;;13.18;2.90;;;5.90;99.90;;;;;;5040487;28;20021;-87
2023/03/25 02:05:09;;;;;;;10.63;2.80;;;5.90;99.90;;;;;;5023290;28;20036;-87
2023/03/25 02:07:41;;;;;;;18.38;2.92;;;5.90;99.90;;;;;;5023492;28;20016;-87
2023/03/25 02:10:10;;;;;;;12.95;2.70;;;5.80;99.90;;;;;;5022625;28;20035;-87
2023/03/25 02:12:35;;;;;;;16.77;2.90;;;5.80;99.90;;;;;;5040489;28;20017;-87
2023/03/25 02:15:05;;;;;;;10.07;3.28;;;5.80;99.90;;;;;;5023170;28;20483;-87
2023/03/25 02:17:48;;;;;;;14.23;2.55;;;5.80;99.90;;;;;;5039478;28;20025;-88
2023/03/25 02:20:56;;;;;;;17.55;3.38;;;5.70;99.90;;;;;;5038838;28;20021;-88
2023/03/25 02:23:31;;;;;;;11.18;2.55;;;5.70;99.90;;;;;;4997984;28;20032;-86
2023/03/25 02:26:21;;;;;;;13.15;2.83;;;5.60;99.90;;;;;;5022227;28;20025;-86
2023/03/25 02:29:32;;;;;;;11.40;2.83;;;5.60;99.90;;;;;;5018491;28;20427;-86
2023/03/25 02:32:07;;;;;;;8.32;1.60;;;5.50;99.90;;;;;;5012444;28;20518;-86
2023/03/25 02:34:45;;;;;;;5.43;1.85;;;5.40;99.90;;;;;;5039622;28;20028;-87
2023/03/25 02:37:49;;;;;;;4.22;1.35;;;5.40;99.90;;;;;;5021028;28;20025;-86
2023/03/25 02:40:25;;;;;;;5.45;1.30;;;5.30;99.90;;;;;;5022758;28;20029;-85
2023/03/25 02:42:59;;;;;;;8.88;1.40;;;5.20;99.90;;;;;;5022963;28;20023;-86
2023/03/25 02:45:53;;;;;;;6.20;1.35;;;5.10;99.90;;;;;;5039367;28;20116;-86
2023/03/25 02:48:24;;;;;;;2.13;1.15;;;5.10;99.90;;;;;;5037682;28;20094;-86
2023/03/25 02:50:53;;;;;;;2.92;0.90;;;5.00;99.90;;;;;;5022497;28;20032;-86
2023/03/25 02:53:28;;;;;;;6.05;1.33;;;5.00;99.90;;;;;;5021116;28;20044;-86
2023/03/25 02:55:58;;;;;;;6.22;1.60;;;5.00;99.90;;;;;;5021605;28;20156;-85
2023/03/25 02:58:28;;;;;;;6.85;1.17;;;4.90;99.90;;;;;;5049619;28;20044;-85
2023/03/25 03:00:57;;;;;;;5.60;1.00;;;5.00;99.90;;;;;;5039057;28;20025;-86
2023/03/25 03:03:24;;;;;;;8.38;0.90;;;5.00;99.90;;;;;;5021442;28;20491;-86
2023/03/25 03:05:53;;;;;;;4.80;0.90;;;5.00;99.90;;;;;;5018903;28;20064;-86
2023/03/25 03:08:45;;;;;;;4.30;1.20;;;5.00;99.90;;;;;;5054130;28;20037;-86
2023/03/25 03:11:14;;;;;;;6.18;1.55;;;5.00;99.90;;;;;;5038633;28;20100;-85
2023/03/25 03:13:49;;;;;;;6.75;1.35;;;5.10;99.90;;;;;;5038384;28;20055;-87
2023/03/25 03:16:24;;;;;;;5.88;1.13;;;5.00;99.90;;;;;;5039030;28;20028;-86
2023/03/25 03:19:01;;;;;;;2.80;0.98;;;5.00;99.90;;;;;;5038608;28;20025;-86
2023/03/25 03:21:50;;;;;;;4.05;1.10;;;5.10;99.90;;;;;;5021586;28;20111;-86
2023/03/25 03:24:27;;;;;;;4.30;0.73;;;5.10;99.90;;;;;;5019977;28;20473;-86
2023/03/25 03:27:07;;;;;;;9.07;1.73;;;5.10;99.90;;;;;;5017281;28;20028;-87
2023/03/25 03:29:47;;;;;;;2.05;0.90;;;5.10;99.90;;;;;;5021141;28;20115;-87
2023/03/25 03:32:19;;;;;;;4.35;0.85;;;5.10;99.90;;;;;;5018859;28;20025;-86
2023/03/25 03:34:48;;;;;;;1.77;1.00;;;5.00;99.90;;;;;;5037662;28;20472;-87
2023/03/25 03:37:19;;;;;;;7.47;1.40;;;5.00;99.90;;;;;;5037506;28;20027;-86
2023/03/25 03:39:47;;;;;;;4.93;1.92;;;5.00;99.90;;;;;;5032127;28;20050;-86
2023/03/25 03:42:35;;;;;;;5.68;1.25;;;5.00;99.90;;;;;;5020723;28;20349;-86
2023/03/25 03:45:06;;;;;;;3.28;1.27;;;5.00;99.90;;;;;;5036943;28;20028;-86
2023/03/25 03:47:39;;;;;;;4.40;1.10;;;5.00;99.90;;;;;;5021968;28;20037;-86
2023/03/25 03:50:08;;;;;;;3.08;1.25;;;5.00;99.90;;;;;;5021030;28;20033;-86
2023/03/25 03:52:44;;;;;;;6.72;1.27;;;5.00;99.90;;;;;;5037505;28;20024;-86
2023/03/25 03:55:22;;;;;;;4.53;0.90;;;5.00;99.90;;;;;;5037763;28;20039;-86
2023/03/25 03:57:58;;;;;;;2.97;1.85;;;5.00;99.90;;;;;;5020782;28;20052;-86
2023/03/25 04:00:30;;;;;;;4.43;2.05;;;5.00;99.90;;;;;;5037256;28;20025;-86
2023/03/25 04:03:13;;;;;;;2.42;1.55;;;5.00;99.90;;;;;;5021236;28;20067;-87
2023/03/25 04:05:50;;;;;;;6.95;1.73;;;4.90;99.90;;;;;;5049590;28;20084;-86
2023/03/25 04:08:41;;;;;;;4.03;1.90;;;4.90;99.90;;;;;;5034810;28;20091;-86
2023/03/25 04:11:10;;;;;;;;;;;4.90;99.90;;;;;;5018049;28;20084;-86
2023/03/25 04:13:40;;;;;;;9.57;2.88;;;4.90;99.90;;;;;;5020181;28;19917;-86
2023/03/25 04:16:07;;;;;;;7.75;1.55;;;4.90;99.90;;;;;;5020056;28;20037;-86
2023/03/25 04:18:32;;;;;;;7.07;1.70;;;4.90;99.90;;;;;;5037206;28;20048;-86
2023/03/25 04:20:59;;;;;;;7.25;1.50;;;4.90;99.90;;;;;;5036761;28;20021;-86
2023/03/25 04:23:28;;;;;;;5.75;2.20;;;4.80;99.90;;;;;;5036274;28;20671;-87
2023/03/25 04:25:55;;;;;;;9.00;1.90;;;4.90;99.90;;;;;;5020509;28;20029;-86
2023/03/25 04:28:26;;;;;;;3.88;1.80;;;4.90;99.90;;;;;;5019973;28;20035;-87
2023/03/25 04:30:54;;;;;;;8.75;2.15;;;4.90;99.90;;;;;;5016384;28;20053;-86
2023/03/25 04:33:23;;;;;;;7.18;2.00;;;4.90;99.90;;;;;;5036583;28;20040;-86
2023/03/25 04:35:49;;;;;;;6.72;2.78;;;4.90;99.90;;;;;;5019622;28;20041;-86
2023/03/25 04:38:17;;;;;;;10.48;2.40;;;4.90;99.90;;;;;;5037049;28;20013;-86
2023/03/25 04:40:45;;;;;;;7.07;2.10;;;4.90;99.90;;;;;;5036181;28;20091;-86
2023/03/25 04:43:12;;;;;;;4.55;1.80;;;4.90;99.90;;;;;;5036581;28;20051;-86
2023/03/25 04:45:38;;;;;;;7.32;2.35;;;4.90;99.90;;;;;;5036126;28;20032;-86
2023/03/25 04:48:04;;;;;;;9.02;4.10;;;4.90;99.90;;;;;;5016740;28;20029;-85
2023/03/25 04:50:31;;;;;;;4.93;2.17;;;4.90;99.90;;;;;;5019589;28;20029;-86
2023/03/25 04:52:59;;;;;;;7.90;2.22;;;4.90;99.90;;;;;;5016515;28;20409;-86
2023/03/25 04:55:25;;;;;;;4.18;2.20;;;4.90;99.90;;;;;;5034948;28;20114;-85
2023/03/25 04:57:52;;;;;;;3.63;2.08;;;4.90;99.90;;;;;;5016628;28;20457;-87
2023/03/25 05:00:21;;;;;;;6.57;1.92;;;5.00;99.90;;;;;;5036618;28;20029;-87
2023/03/25 05:02:48;;;;;;;9.85;2.90;;;4.90;99.90;;;;;;5019886;28;20116;-86
2023/03/25 05:08:40;;;;;;;11.05;3.08;;;5.00;99.90;;;;;;5034708;28;20360;-86
2023/03/25 05:11:06;;;;;;;8.77;3.95;;;5.00;99.90;;;;;;5036544;28;20035;-85
2023/03/25 05:13:31;;;;;;;8.32;3.45;;;5.00;99.90;;;;;;5036664;28;20036;-86
2023/03/25 05:15:57;;;;;;;12.52;3.80;;;5.00;99.90;;;;;;5019905;28;20029;-85
2023/03/25 05:18:23;;;;;;;16.33;4.00;;;5.00;99.90;;;;;;5020031;28;20039;-88
2023/03/25 05:24:36;;;;;;;10.68;3.83;;;5.00;99.90;;;;;;5055750;28;20112;-88
2023/03/25 05:27:02;;;;;;;11.23;3.08;;;4.90;99.90;;;;;;5042604;28;20060;-88
2023/03/25 05:29:32;;;;;;;6.78;2.38;;;5.00;99.90;;;;;;5025497;28;20131;-89
2023/03/25 05:31:58;;;;;;;7.85;1.92;;;5.00;99.90;;;;;;5022826;28;20026;-88
2023/03/25 05:34:24;;;;;;;8.70;2.78;;;4.90;99.90;;;;;;5024752;28;20555;-88
2023/03/25 05:36:50;;;;;;;9.52;2.30;;;4.90;99.90;;;;;;5025519;28;20036;-88
2023/03/25 05:39:16;;;;;;;9.48;2.50;;;4.90;99.90;;;;;;5042006;28;20534;-88
2023/03/25 05:41:44;;;;;;;8.70;2.40;;;4.90;99.90;;;;;;5042028;28;20167;-88
2023/03/25 05:44:13;;;;;;;12.23;2.42;;;4.90;99.90;;;;;;5025502;28;20053;-89
2023/03/25 05:46:39;;;;;;;19.98;2.90;;;4.90;99.90;;;;;;5042147;28;20033;-89
2023/03/25 05:49:05;;;;;;;9.77;2.63;;;4.90;99.90;;;;;;5025511;28;20369;-87
2023/03/25 05:51:36;;;;;;;14.60;3.45;;;4.90;99.90;;;;;;5025382;28;20036;-89
2023/03/25 05:54:02;;;;;;;15.30;2.28;;;4.90;99.90;;;;;;5041109;28;20025;-88
2023/03/25 05:56:28;;;;;;;9.35;2.50;;;4.90;99.90;;;;;;5024810;28;20029;-88
2023/03/25 05:58:56;;;;;;;5.68;1.98;;;4.90;99.90;;;;;;5025008;28;20025;-90
2023/03/25 06:01:22;;;;;;;13.55;2.40;;;5.00;99.90;;;;;;5024262;28;20049;-88
2023/03/25 06:03:48;;;;;;;12.70;2.70;;;5.00;99.90;;;;;;5024936;28;20025;-88
2023/03/25 06:06:17;;;;;;;9.57;2.45;;;5.00;99.90;;;;;;5021788;28;20025;-88
2023/03/25 06:08:44;;;;;;;11.82;1.85;;;5.00;99.90;;;;;;5024498;28;20508;-87
2023/03/25 06:11:12;;;;;;;15.25;2.13;;;5.00;99.90;;;;;;5041584;28;20028;-88
2023/03/25 06:13:39;;;;;;;8.40;1.80;;;5.00;99.90;;;;;;5024748;28;20036;-88
2023/03/25 06:16:07;;;;;;;8.95;2.15;;;5.00;99.90;;;;;;5042241;28;20040;-88
2023/03/25 06:18:36;;;;;;;12.40;1.80;;;5.10;99.90;;;;;;5024822;28;20025;-88
2023/03/25 06:21:03;;;;;;;10.02;2.58;;;5.10;99.90;;;;;;5040999;28;20033;-89
2023/03/25 06:23:30;;;;;;;13.95;1.70;;;5.10;99.90;;;;;;5006651;28;20413;-88
2023/03/25 06:25:57;;;;;;;18.17;4.57;;;5.10;99.90;;;;;;5041234;28;20025;-87
2023/03/25 06:28:23;;;;;;;16.55;5.35;;;5.20;99.90;;;;;;5022408;28;20124;-87
2023/03/25 06:30:49;;;;;;;21.77;5.45;;;5.20;99.90;;;;;;5023427;28;20448;-89
2023/03/25 06:33:18;;;;;;;17.63;3.92;;;5.30;99.90;;;;;;5037844;28;20039;-89
2023/03/25 06:35:53;;;;;;;18.75;5.70;;;5.40;99.90;;;;;;5023336;28;20071;-88
2023/03/25 06:38:22;;;;;;;20.80;6.20;;;5.40;99.90;;;;;;5023389;28;20060;-89
2023/03/25 06:41:19;;;;;;;14.10;3.30;;;5.40;99.90;;;;;;5051734;28;20036;-87
2023/03/25 06:43:49;;;;;;;13.25;2.92;;;5.40;99.90;;;;;;5040134;28;20025;-88
2023/03/25 06:46:38;;;;;;;12.68;2.83;;;5.50;99.90;;;;;;5043199;28;20029;-89
2023/03/25 06:49:22;;;;;;;13.05;2.80;;;5.60;99.90;;;;;;5026346;28;20097;-88
2023/03/25 06:51:48;;;;;;;23.08;3.00;;;5.60;99.90;;;;;;5015587;28;20029;-88
2023/03/25 06:54:14;;;;;;;12.77;2.97;;;5.70;99.90;;;;;;5025286;28;20037;-89
2023/03/25 06:56:41;;;;;;;23.70;4.13;;;5.60;99.90;;;;;;5017756;28;20036;-88
2023/03/25 06:59:07;;;;;;;15.23;3.30;;;5.60;99.90;;;;;;5023752;28;20024;-89
2023/03/25 07:01:32;;;;;;;26.35;3.75;;;5.60;99.90;;;;;;5025888;28;20116;-90
2023/03/25 07:03:58;;;;;;;11.95;3.25;;;5.50;99.90;;;;;;5019725;28;20035;-89
2023/03/25 07:06:24;;;;;;;14.00;3.38;;;5.40;99.90;;;;;;5040238;28;20029;-89
2023/03/25 07:08:51;;;;;;;16.25;3.35;;;5.40;99.90;;;;;;5022972;28;20028;-90
2023/03/25 07:11:23;;;;;;;20.42;4.72;;;5.50;99.90;;;;;;5024734;28;20040;-89
2023/03/25 07:13:52;;;;;;;26.90;10.45;;;5.50;99.90;;;;;;5022693;28;20041;-89
2023/03/25 07:16:20;;;;;;;23.00;8.05;;;5.50;99.90;;;;;;5023342;28;20140;-89
2023/03/25 07:18:46;;;;;;;26.45;7.65;;;5.50;99.90;;;;;;5022752;28;20047;-90
2023/03/25 07:21:11;;;;;;;17.52;3.35;;;5.60;99.90;;;;;;5024049;28;20018;-89
2023/03/25 07:23:37;;;;;;;20.50;3.35;;;5.90;99.90;;;;;;5039218;28;20365;-90
2023/03/25 07:26:03;;;;;;;13.38;2.60;;;6.10;99.90;;;;;;5022058;28;20028;-89
2023/03/25 07:28:29;;;;;;;12.93;3.55;;;6.30;99.90;;;;;;5055577;28;20129;-89
2023/03/25 07:30:55;;;;;;;19.05;3.10;;;6.40;99.90;;;;;;5021691;28;20025;-90
2023/03/25 07:33:21;;;;;;;23.70;3.40;;;6.70;99.90;;;;;;5023873;28;20037;-89
2023/03/25 07:35:47;;;;;;;17.38;4.10;;;6.70;99.90;;;;;;5038654;28;20036;-88
2023/03/25 07:38:18;;;;;;;12.55;3.67;;;7.00;99.90;;;;;;5023327;28;20427;-88
2023/03/25 07:40:47;;;;;;;17.17;3.05;;;7.10;99.90;;;;;;5027681;28;20025;-89
2023/03/25 07:43:14;;;;;;;13.50;2.63;;;7.10;99.90;;;;;;5042154;28;20041;-90
2023/03/25 07:45:52;;;;;;;14.55;2.78;;;7.20;99.90;;;;;;5006178;28;20102;-89
2023/03/25 07:48:28;;;;;;;19.45;2.70;;;7.20;99.90;;;;;;5026308;28;20087;-88
2023/03/25 07:50:56;;;;;;;8.15;2.70;;;7.10;99.90;;;;;;5043694;28;20029;-88
2023/03/25 07:53:23;;;;;;;16.13;2.33;;;7.20;99.90;;;;;;5024285;28;20037;-90
2023/03/25 07:55:49;;;;;;;16.73;2.50;;;7.30;99.90;;;;;;5031812;28;20025;-89
2023/03/25 07:58:17;;;;;;;9.07;2.63;;;7.30;99.90;;;;;;5023287;28;20056;-90
2023/03/25 08:00:43;;;;;;;14.73;2.95;;;7.30;99.90;;;;;;5020461;28;20466;-89
2023/03/25 08:03:11;;;;;;;18.73;3.88;;;7.30;99.90;;;;;;5030151;28;20021;-88
2023/03/25 08:05:37;;;;;;;9.25;1.80;;;7.20;99.90;;;;;;5033837;28;20120;-88
2023/03/25 08:08:04;;;;;;;15.32;2.40;;;7.40;99.90;;;;;;5023888;28;20033;-89
2023/03/25 08:10:31;;;;;;;14.73;2.53;;;7.50;99.90;;;;;;5023621;28;20028;-89
2023/03/25 08:12:56;;;;;;;10.65;2.55;;;7.60;99.90;;;;;;5032043;28;20079;-90
2023/03/25 08:15:23;;;;;;;17.17;2.75;;;7.70;99.90;;;;;;5037534;28;20071;-89
2023/03/25 08:17:53;;;;;;;12.45;2.20;;;7.80;99.90;;;;;;5025028;28;20021;-89
2023/03/25 08:20:19;;;;;;;20.80;2.28;;;7.90;99.90;;;;;;5027496;28;20141;-89
2023/03/25 08:22:46;;;;;;;5.43;1.80;;;8.10;99.90;;;;;;5040882;28;20107;-90
2023/03/25 08:25:12;;;;;;;11.57;3.00;;;8.00;99.90;;;;;;5027407;28;20543;-89
2023/03/25 08:27:51;;;;;;;10.73;2.13;;;7.90;99.90;;;;;;5023333;28;20097;-88
2023/03/25 08:30:21;;;;;;;17.35;2.45;;;7.80;99.90;;;;;;5018712;28;20041;-89
2023/03/25 08:32:57;;;;;;;10.35;2.22;;;7.70;99.90;;;;;;5034878;28;20035;-89
2023/03/25 08:35:26;;;;;;;17.58;4.15;;;7.50;99.90;;;;;;5039436;28;20580;-87
2023/03/25 08:38:00;;;;;;;12.85;2.53;;;7.30;99.90;;;;;;5037255;28;20028;-89
2023/03/25 08:40:26;;;;;;;14.88;2.58;;;7.20;99.90;;;;;;5024253;28;20397;-88
2023/03/25 08:42:52;;;;;;;11.20;2.50;;;7.30;99.90;;;;;;5021873;28;20025;-91
2023/03/25 08:45:18;;;;;;;15.00;1.98;;;7.40;99.90;;;;;;5021850;28;20025;-89
2023/03/25 08:47:45;;;;;;;12.75;3.15;;;7.50;99.90;;;;;;5038678;28;20079;-88
2023/03/25 08:50:11;;;;;;;11.07;2.08;;;7.50;99.90;;;;;;5021394;28;20486;-89
2023/03/25 08:52:37;;;;;;;11.70;2.00;;;7.50;99.90;;;;;;5020054;28;20018;-89
2023/03/25 08:55:06;;;;;;;10.93;2.90;;;7.70;99.90;;;;;;5025718;28;20383;-89
2023/03/25 08:57:35;;;;;;;7.15;1.73;;;7.70;99.90;;;;;;5024375;28;20891;-88
2023/03/25 09:00:26;;;;;;;7.35;1.95;;;7.60;99.90;;;;;;5041801;28;20025;-87
2023/03/25 09:02:51;;;;;;;12.70;1.60;;;7.50;99.90;;;;;;5039616;28;20024;-88
2023/03/25 09:05:17;;;;;;;12.38;1.80;;;7.40;99.90;;;;;;5025261;28;20033;-88
2023/03/25 09:07:43;;;;;;;5.32;1.23;;;7.40;99.90;;;;;;5025903;28;20025;-88
2023/03/25 09:10:11;;;;;;;4.05;1.42;;;7.60;99.90;;;;;;5042059;28;20033;-88
2023/03/25 09:12:56;;;;;;;7.82;1.48;;;8.00;99.90;;;;;;5025427;28;20029;-89
2023/03/25 09:15:37;;;;;;;11.02;1.60;;;8.30;99.90;;;;;;5042044;28;20037;-90
2023/03/25 09:18:04;;;;;;;8.43;2.22;;;8.30;99.90;;;;;;5042226;28;20044;-89
2023/03/25 09:20:30;;;;;;;6.07;1.83;;;8.20;99.90;;;;;;5041528;28;20036;-89
2023/03/25 09:22:56;;;;;;;7.38;2.08;;;8.20;99.90;;;;;;5025107;28;20025;-87
2023/03/25 09:25:22;;;;;;;8.10;1.30;;;8.20;99.90;;;;;;5025437;28;20029;-88
2023/03/25 09:28:00;;;;;;;4.25;1.02;;;8.30;99.90;;;;;;5024309;28;20028;-88
2023/03/25 09:30:44;;;;;;;3.63;0.90;;;8.30;99.90;;;;;;5041151;28;20063;-87
2023/03/25 09:33:13;;;;;;;6.20;0.77;;;8.10;99.90;;;;;;5040940;28;20535;-88
2023/03/25 09:35:40;;;;;;;5.07;1.80;;;8.20;99.90;;;;;;5023678;28;20030;-87
2023/03/25 09:38:06;;;;;;;2.95;0.80;;;8.10;99.90;;;;;;5040950;28;20468;-88
2023/03/25 09:40:33;;;;;;;30.85;13.25;;;8.30;99.90;;;;;;5025083;28;20063;-88
2023/03/25 09:43:02;;;;;;;2.35;1.10;;;8.50;99.90;;;;;;5034701;28;20090;-88
2023/03/25 09:45:43;;;;;;;4.80;2.33;;;9.00;99.90;;;;;;5041000;28;20074;-88
2023/03/25 09:48:31;;;;;;;1.95;0.98;;;9.40;99.90;;;;;;5041002;28;20398;-88
2023/03/25 09:51:03;;;;;;;3.10;0.73;;;9.60;99.90;;;;;;5040782;28;20025;-90
2023/03/25 09:53:44;;;;;;;2.72;0.90;;;10.00;99.90;;;;;;5024893;28;20499;-87
2023/03/25 09:56:15;;;;;;;3.50;0.90;;;10.00;99.90;;;;;;5019567;28;20025;-89
2023/03/25 09:58:55;;;;;;;;;;;9.50;99.90;;;;;;5024566;28;20025;-88
2023/03/25 10:01:36;;;;;;;2.90;1.08;;;9.10;99.90;;;;;;5025028;28;19915;-87
2023/03/25 10:04:27;;;;;;;2.88;0.95;;;8.30;99.90;;;;;;5024367;28;20029;-88
2023/03/25 10:07:19;;;;;;;3.67;1.13;;;8.00;99.90;;;;;;5023162;28;20044;-87
2023/03/25 10:09:54;;;;;;;3.10;0.90;;;7.80;99.90;;;;;;5023912;28;20486;-87
2023/03/25 10:12:26;;;;;;;2.30;1.02;;;7.80;99.90;;;;;;5021236;28;20036;-89
2023/03/25 10:15:16;;;;;;;4.45;1.30;;;7.60;99.90;;;;;;5040951;28;20025;-89
2023/03/25 10:18:01;;;;;;;5.00;1.20;;;7.70;99.90;;;;;;5024352;28;20033;-88
2023/03/25 10:20:50;;;;;;;12.68;2.08;;;7.70;99.90;;;;;;5040636;28;20028;-87
2023/03/25 10:23:34;;;;;;;10.05;1.85;;;8.10;99.90;;;;;;5019602;28;20025;-88
2023/03/25 10:26:16;;;;;;;2.83;1.30;;;8.60;99.90;;;;;;5041477;28;20064;-88
2023/03/25 10:28:52;;;;;;;3.58;1.40;;;9.40;99.90;;;;;;5037214;28;20349;-89
2023/03/25 10:31:24;;;;;;;4.00;1.50;;;9.40;99.90;;;;;;5023515;28;20044;-87
2023/03/25 10:34:02;;;;;;;7.32;1.67;;;8.90;99.90;;;;;;5019776;28;20037;-88
2023/03/25 10:36:50;;;;;;;3.95;1.90;;;8.50;99.90;;;;;;5039108;28;20119;-88
2023/03/25 10:39:20;;;;;;;5.25;1.75;;;8.50;99.90;;;;;;5039580;28;20098;-87
2023/03/25 10:41:58;;;;;;;9.23;2.20;;;8.60;99.90;;;;;;5040123;28;20033;-89
2023/03/25 10:44:26;;;;;;;11.85;2.20;;;8.50;99.90;;;;;;5039934;28;20025;-89
2023/03/25 10:47:32;;;;;;;4.72;1.52;;;8.80;99.90;;;;;;5035767;28;20489;-88
2023/03/25 10:49:58;;;;;;;7.43;1.88;;;9.00;99.90;;;;;;5023444;28;20472;-88
2023/03/25 10:52:24;;;;;;;4.10;1.40;;;9.10;99.90;;;;;;5039658;28;20115;-88
2023/03/25 10:54:54;;;;;;;4.70;1.83;;;9.50;99.90;;;;;;5022746;28;20112;-88
2023/03/25 10:57:27;;;;;;;4.38;1.83;;;9.60;99.90;;;;;;5039025;28;20040;-88
2023/03/25 11:00:05;;;;;;;12.90;4.68;;;9.60;99.90;;;;;;5014999;28;20029;-88
2023/03/25 11:02:32;;;;;;;8.25;3.30;;;8.90;99.90;;;;;;5046493;28;20034;-89
2023/03/25 11:05:03;;;;;;;6.38;3.60;;;8.50;99.90;;;;;;5038645;28;20483;-88
2023/03/25 11:07:36;;;;;;;8.52;3.83;;;8.00;99.90;;;;;;5012066;28;20040;-90
2023/03/25 11:10:17;;;;;;;4.55;2.47;;;7.60;99.90;;;;;;5040690;28;20123;-90
2023/03/25 11:12:47;;;;;;;9.57;3.95;;;7.40;99.90;;;;;;5026694;28;20083;-89
2023/03/25 11:15:34;;;;;;;8.55;2.17;;;8.20;99.90;;;;;;5048030;28;20095;-89
2023/03/25 11:18:25;;;;;;;5.55;1.77;;;9.10;99.90;;;;;;5026412;28;20029;-90
2023/03/25 11:20:55;;;;;;;5.80;2.00;;;9.50;99.90;;;;;;5023814;28;20025;-89
2023/03/25 11:23:50;;;;;;;9.85;3.45;;;9.60;99.90;;;;;;5039814;28;20028;-89
2023/03/25 11:26:23;;;;;;;8.43;2.05;;;9.20;99.90;;;;;;5037452;28;20040;-90
2023/03/25 11:29:14;;;;;;;7.72;3.40;;;8.60;99.90;;;;;;5022949;28;20060;-90
2023/03/25 11:31:41;;;;;;;12.15;2.72;;;8.20;99.90;;;;;;5012820;28;20568;-89
2023/03/25 11:34:18;;;;;;;5.15;1.98;;;7.70;99.90;;;;;;5023584;28;20544;-89
2023/03/25 11:36:46;;;;;;;5.25;2.30;;;7.40;99.90;;;;;;5039463;28;20091;-90
2023/03/25 11:39:34;;;;;;;6.55;2.15;;;7.20;99.90;;;;;;5019831;28;20112;-90
2023/03/25 11:42:10;;;;;;;5.53;2.10;;;6.90;99.90;;;;;;5021526;28;20084;-87
2023/03/25 11:44:36;;;;;;;5.20;3.00;;;6.80;99.90;;;;;;5035009;28;20500;-87
2023/03/25 11:47:07;;;;;;;7.22;2.22;;;7.40;99.90;;;;;;5038503;28;20052;-88
2023/03/25 11:49:40;;;;;;;5.13;1.75;;;8.30;99.90;;;;;;5022545;28;20694;-87
2023/03/25 11:52:18;;;;;;;3.45;1.30;;;8.60;99.90;;;;;;5031659;28;20025;-89
2023/03/25 11:54:44;;;;;;;8.15;1.60;;;8.60;99.90;;;;;;5032411;28;20484;-87
2023/03/25 11:57:15;;;;;;;6.43;1.67;;;8.70;99.90;;;;;;5036558;28;20056;-88
2023/03/25 11:59:47;;;;;;;2.95;1.27;;;8.60;99.90;;;;;;5051006;28;20071;-88
2023/03/25 12:02:27;;;;;;;3.60;1.55;;;8.40;99.90;;;;;;5053296;28;20044;-89
2023/03/25 12:05:22;;;;;;;4.18;1.85;;;8.30;99.90;;;;;;5041032;28;20035;-90
2023/03/25 12:07:51;;;;;;;7.03;2.08;;;8.20;99.90;;;;;;5038365;28;20072;-89
2023/03/25 12:10:41;;;;;;;3.70;2.05;;;7.80;99.90;;;;;;5039402;28;20083;-89
2023/03/25 12:13:22;;;;;;;4.38;1.30;;;7.40;99.90;;;;;;5028981;28;20048;-89
2023/03/25 12:16:06;;;;;;;4.03;2.03;;;7.00;99.90;;;;;;5022708;28;20045;-90
2023/03/25 12:18:46;;;;;;;2.47;1.23;;;6.70;99.90;;;;;;5021904;28;20151;-88
2023/03/25 12:21:12;;;;;;;4.07;2.20;;;6.50;99.90;;;;;;5039721;28;20469;-90
2023/03/25 12:24:07;;;;;;;6.13;2.00;;;6.40;99.90;;;;;;5024064;28;20052;-90
2023/03/25 12:27:08;;;;;;;2.92;1.15;;;6.30;99.90;;;;;;5039089;28;20035;-89
2023/03/25 12:30:06;;;;;;;7.63;1.50;;;6.10;99.90;;;;;;5038352;28;20406;-89
2023/03/25 12:32:45;;;;;;;7.47;2.17;;;6.30;99.90;;;;;;5036304;28;20047;-90
2023/03/25 12:35:17;;;;;;;3.90;2.30;;;6.80;99.90;;;;;;5029783;28;20510;-90
2023/03/25 12:37:52;;;;;;;2.63;1.05;;;7.30;99.90;;;;;;5037917;28;20029;-91
2023/03/25 12:40:21;;;;;;;7.43;1.35;;;7.60;99.90;;;;;;5043104;28;20376;-89
2023/03/25 12:43:10;;;;;;;9.30;1.73;;;7.80;99.90;;;;;;5044395;28;20116;-88
2023/03/25 12:45:46;;;;;;;13.40;1.75;;;8.10;99.90;;;;;;5013243;28;20025;-89
2023/03/25 12:48:24;;;;;;;3.35;1.00;;;8.20;99.90;;;;;;5025315;28;20024;-89
2023/03/25 12:50:59;;;;;;;4.88;1.25;;;8.20;99.90;;;;;;5023029;28;20032;-90
2023/03/25 12:53:46;;;;;;;9.18;1.73;;;8.20;99.90;;;;;;5033825;28;20483;-89
2023/03/25 12:56:25;;;;;;;4.60;1.95;;;8.40;99.90;;;;;;5038598;28;20029;-89
2023/03/25 12:59:11;;;;;;;5.80;1.30;;;8.70;99.90;;;;;;5020201;28;20025;-90
2023/03/25 13:02:08;;;;;;;6.55;1.33;;;8.80;99.90;;;;;;5038432;28;20384;-89
2023/03/25 13:04:59;;;;;;;6.57;2.78;;;8.70;99.90;;;;;;5023395;28;20037;-91
2023/03/25 13:10:40;;;;;;;9.30;3.33;;;8.60;99.90;;;;;;5038493;28;20384;-90
2023/03/25 13:13:15;;;;;;;8.80;3.05;;;9.00;99.90;;;;;;5022480;28;20468;-90
2023/03/25 13:15:45;;;;;;;6.47;3.63;;;9.10;99.90;;;;;;5034664;28;20068;-89
2023/03/25 13:18:21;;;;;;;11.05;3.92;;;8.90;99.90;;;;;;5038499;28;20029;-89
2023/03/25 13:21:00;;;;;;;10.40;3.70;;;9.00;99.90;;;;;;5034827;28;20059;-89
2023/03/25 13:23:29;;;;;;;4.75;1.80;;;9.10;99.90;;;;;;5023944;28;20504;-88
2023/03/25 13:26:17;;;;;;;7.40;2.08;;;9.00;99.90;;;;;;5026811;28;20033;-88
2023/03/25 13:28:57;;;;;;;5.35;1.83;;;9.20;99.90;;;;;;5044177;28;20651;-88
2023/03/25 13:31:27;;;;;;;6.28;1.48;;;9.40;99.90;;;;;;5020568;28;20388;-88